sensor_id;sensor_type;location;lat;lon;timestamp;P1;durP1;ratioP1;P2;durP2;ratioP2
78891;SDS011;68368;51.728;5.248;2024-03-23T00:52:53;13.40;;;4.40;;
78891;SDS011;68368;51.728;5.248;2024-03-23T00:54:58;13.20;;;4.40;;
78891;SDS011;68368;51.728;5.248;2024-03-23T00:57:03;11.60;;;3.90;;
78891;SDS011;68368;51.728;5.248;2024-03-23T00:59:07;11.00;;;3.80;;
78891;SDS011;68368;51.728;5.248;2024-03-23T01:01:12;14.80;;;4.50;;
78891;SDS011;68368;51.728;5.248;2024-03-23T01:03:17;13.40;;;4.00;;
78891;SDS011;68368;51.728;5.248;2024-03-23T01:05:23;9.90;;;4.20;;
78891;SDS011;68368;51.728;5.248;2024-03-23T01:07:27;13.20;;;4.00;;
78891;SDS011;68368;51.728;5.248;2024-03-23T01:09:32;15.40;;;5.40;;
78891;SDS011;68368;51.728;5.248;2024-03-23T01:11:36;15.10;;;4.70;;
78891;SDS011;68368;51.728;5.248;2024-03-23T01:13:42;12.50;;;4.40;;
78891;SDS011;68368;51.728;5.248;2024-03-23T01:15:53;14.40;;;4.50;;
78891;SDS011;68368;51.728;5.248;2024-03-23T01:17:59;14.00;;;4.90;;
78891;SDS011;68368;51.728;5.248;2024-03-23T01:20:06;12.20;;;4.70;;
78891;SDS011;68368;51.728;5.248;2024-03-23T01:22:12;11.70;;;3.80;;
78891;SDS011;68368;51.728;5.248;2024-03-23T01:24:18;10.40;;;3.90;;
78891;SDS011;68368;51.728;5.248;2024-03-23T01:26:22;10.10;;;4.10;;
78891;SDS011;68368;51.728;5.248;2024-03-23T01:28:27;12.10;;;4.10;;
78891;SDS011;68368;51.728;5.248;2024-03-23T01:30:33;12.40;;;3.50;;
78891;SDS011;68368;51.728;5.248;2024-03-23T01:32:38;12.20;;;3.80;;
78891;SDS011;68368;51.728;5.248;2024-03-23T01:34:42;7.00;;;2.90;;
78891;SDS011;68368;51.728;5.248;2024-03-23T01:36:47;8.30;;;2.90;;
78891;SDS011;68368;51.728;5.248;2024-03-23T01:38:52;13.80;;;3.10;;
78891;SDS011;68368;51.728;5.248;2024-03-23T01:40:58;8.70;;;2.90;;
78891;SDS011;68368;51.728;5.248;2024-03-23T01:43:05;11.40;;;3.00;;
78891;SDS011;68368;51.728;5.248;2024-03-23T01:45:11;11.20;;;4.10;;
78891;SDS011;68368;51.728;5.248;2024-03-23T01:47:15;9.40;;;3.40;;
78891;SDS011;68368;51.728;5.248;2024-03-23T01:49:21;10.40;;;3.40;;
78891;SDS011;68368;51.728;5.248;2024-03-23T01:51:26;10.30;;;3.60;;
78891;SDS011;68368;51.728;5.248;2024-03-23T01:53:32;10.80;;;3.70;;
78891;SDS011;68368;51.728;5.248;2024-03-23T01:55:36;8.00;;;3.20;;
78891;SDS011;68368;51.728;5.248;2024-03-23T01:57:41;8.70;;;3.10;;
78891;SDS011;68368;51.728;5.248;2024-03-23T01:59:45;13.10;;;3.90;;
78891;SDS011;68368;51.728;5.248;2024-03-23T02:01:50;9.00;;;2.80;;
78891;SDS011;68368;51.728;5.248;2024-03-23T02:03:55;14.10;;;3.50;;
78891;SDS011;68368;51.728;5.248;2024-03-23T02:06:00;10.70;;;2.80;;
78891;SDS011;68368;51.728;5.248;2024-03-23T02:08:06;12.00;;;2.70;;
78891;SDS011;68368;51.728;5.248;2024-03-23T02:10:11;12.00;;;3.50;;
78891;SDS011;68368;51.728;5.248;2024-03-23T02:12:15;9.50;;;2.90;;
78891;SDS011;68368;51.728;5.248;2024-03-23T02:14:23;9.90;;;3.60;;
78891;SDS011;68368;51.728;5.248;2024-03-23T02:16:28;9.40;;;4.20;;
78891;SDS011;68368;51.728;5.248;2024-03-23T02:18:32;9.10;;;3.10;;
78891;SDS011;68368;51.728;5.248;2024-03-23T02:20:37;10.90;;;2.70;;
78891;SDS011;68368;51.728;5.248;2024-03-23T02:22:43;8.70;;;2.80;;
78891;SDS011;68368;51.728;5.248;2024-03-23T02:24:47;7.70;;;2.70;;
78891;SDS011;68368;51.728;5.248;2024-03-23T02:26:53;9.20;;;2.60;;
78891;SDS011;68368;51.728;5.248;2024-03-23T02:28:59;11.40;;;3.50;;
78891;SDS011;68368;51.728;5.248;2024-03-23T02:31:04;10.10;;;3.10;;
78891;SDS011;68368;51.728;5.248;2024-03-23T02:33:12;9.60;;;3.00;;
78891;SDS011;68368;51.728;5.248;2024-03-23T02:35:17;11.70;;;3.10;;
78891;SDS011;68368;51.728;5.248;2024-03-23T02:37:22;6.10;;;2.60;;
78891;SDS011;68368;51.728;5.248;2024-03-23T02:39:26;14.30;;;2.80;;
78891;SDS011;68368;51.728;5.248;2024-03-23T02:41:31;10.30;;;3.30;;
78891;SDS011;68368;51.728;5.248;2024-03-23T02:43:36;12.50;;;3.30;;
78891;SDS011;68368;51.728;5.248;2024-03-23T02:45:40;11.00;;;2.80;;
78891;SDS011;68368;51.728;5.248;2024-03-23T02:47:45;8.80;;;2.50;;
78891;SDS011;68368;51.728;5.248;2024-03-23T02:49:50;9.00;;;2.70;;
78891;SDS011;68368;51.728;5.248;2024-03-23T02:51:55;6.70;;;2.10;;
78891;SDS011;68368;51.728;5.248;2024-03-23T02:54:00;12.00;;;2.30;;
78891;SDS011;68368;51.728;5.248;2024-03-23T02:56:05;6.60;;;1.90;;
78891;SDS011;68368;51.728;5.248;2024-03-23T02:58:10;8.10;;;2.00;;
78891;SDS011;68368;51.728;5.248;2024-03-23T03:00:17;10.20;;;2.70;;
78891;SDS011;68368;51.728;5.248;2024-03-23T03:02:22;8.90;;;2.50;;
78891;SDS011;68368;51.728;5.248;2024-03-23T03:04:26;12.00;;;2.30;;
78891;SDS011;68368;51.728;5.248;2024-03-23T03:06:32;6.20;;;2.00;;
78891;SDS011;68368;51.728;5.248;2024-03-23T03:08:37;8.40;;;1.90;;
78891;SDS011;68368;51.728;5.248;2024-03-23T03:10:41;9.40;;;2.30;;
78891;SDS011;68368;51.728;5.248;2024-03-23T03:12:46;8.60;;;2.80;;
78891;SDS011;68368;51.728;5.248;2024-03-23T03:14:54;9.60;;;3.00;;
78891;SDS011;68368;51.728;5.248;2024-03-23T03:16:58;8.90;;;2.40;;
78891;SDS011;68368;51.728;5.248;2024-03-23T03:19:03;7.60;;;2.10;;
78891;SDS011;68368;51.728;5.248;2024-03-23T03:21:07;9.40;;;2.10;;
78891;SDS011;68368;51.728;5.248;2024-03-23T03:23:12;9.00;;;2.40;;
78891;SDS011;68368;51.728;5.248;2024-03-23T03:25:16;10.00;;;2.30;;
78891;SDS011;68368;51.728;5.248;2024-03-23T03:27:20;13.00;;;2.20;;
78891;SDS011;68368;51.728;5.248;2024-03-23T03:29:25;10.50;;;2.20;;
78891;SDS011;68368;51.728;5.248;2024-03-23T03:31:29;9.70;;;2.10;;
78891;SDS011;68368;51.728;5.248;2024-03-23T03:33:34;9.50;;;2.20;;
78891;SDS011;68368;51.728;5.248;2024-03-23T03:35:40;6.90;;;2.30;;
78891;SDS011;68368;51.728;5.248;2024-03-23T03:37:44;7.90;;;2.30;;
78891;SDS011;68368;51.728;5.248;2024-03-23T03:39:49;9.40;;;2.20;;
78891;SDS011;68368;51.728;5.248;2024-03-23T03:41:54;6.30;;;2.20;;
78891;SDS011;68368;51.728;5.248;2024-03-23T03:43:58;9.50;;;1.90;;
78891;SDS011;68368;51.728;5.248;2024-03-23T03:46:03;8.70;;;2.20;;
78891;SDS011;68368;51.728;5.248;2024-03-23T03:48:08;12.10;;;2.30;;
78891;SDS011;68368;51.728;5.248;2024-03-23T03:50:13;9.90;;;3.00;;
78891;SDS011;68368;51.728;5.248;2024-03-23T03:52:18;8.00;;;2.50;;
78891;SDS011;68368;51.728;5.248;2024-03-23T03:54:23;8.50;;;2.00;;
78891;SDS011;68368;51.728;5.248;2024-03-23T03:56:27;6.90;;;2.80;;
78891;SDS011;68368;51.728;5.248;2024-03-23T03:58:32;11.00;;;2.50;;
78891;SDS011;68368;51.728;5.248;2024-03-23T04:00:36;10.40;;;2.80;;
78891;SDS011;68368;51.728;5.248;2024-03-23T04:02:41;10.20;;;2.50;;
78891;SDS011;68368;51.728;5.248;2024-03-23T04:04:45;11.50;;;2.70;;
78891;SDS011;68368;51.728;5.248;2024-03-23T04:06:50;13.60;;;3.10;;
78891;SDS011;68368;51.728;5.248;2024-03-23T04:09:02;7.50;;;2.40;;
78891;SDS011;68368;51.728;5.248;2024-03-23T04:11:07;9.80;;;2.40;;
78891;SDS011;68368;51.728;5.248;2024-03-23T04:13:11;7.90;;;3.20;;
78891;SDS011;68368;51.728;5.248;2024-03-23T04:15:16;10.60;;;2.40;;
78891;SDS011;68368;51.728;5.248;2024-03-23T04:17:21;8.60;;;2.10;;
78891;SDS011;68368;51.728;5.248;2024-03-23T04:19:25;7.70;;;2.20;;
78891;SDS011;68368;51.728;5.248;2024-03-23T04:21:30;9.50;;;2.30;;
78891;SDS011;68368;51.728;5.248;2024-03-23T04:23:34;9.70;;;3.00;;
78891;SDS011;68368;51.728;5.248;2024-03-23T04:25:39;10.50;;;2.40;;
78891;SDS011;68368;51.728;5.248;2024-03-23T04:27:43;8.80;;;2.60;;
78891;SDS011;68368;51.728;5.248;2024-03-23T04:29:49;12.20;;;2.60;;
78891;SDS011;68368;51.728;5.248;2024-03-23T04:31:54;9.90;;;2.70;;
78891;SDS011;68368;51.728;5.248;2024-03-23T04:33:58;7.60;;;3.40;;
78891;SDS011;68368;51.728;5.248;2024-03-23T04:36:03;12.00;;;3.10;;
78891;SDS011;68368;51.728;5.248;2024-03-23T04:38:08;8.10;;;2.80;;
78891;SDS011;68368;51.728;5.248;2024-03-23T04:40:13;12.70;;;2.50;;
78891;SDS011;68368;51.728;5.248;2024-03-23T04:42:18;11.50;;;3.40;;
78891;SDS011;68368;51.728;5.248;2024-03-23T04:44:22;8.90;;;3.00;;
78891;SDS011;68368;51.728;5.248;2024-03-23T04:46:26;8.30;;;2.40;;
78891;SDS011;68368;51.728;5.248;2024-03-23T04:48:31;10.00;;;2.90;;
78891;SDS011;68368;51.728;5.248;2024-03-23T04:50:35;8.40;;;2.20;;
78891;SDS011;68368;51.728;5.248;2024-03-23T04:52:41;13.20;;;2.70;;
78891;SDS011;68368;51.728;5.248;2024-03-23T04:54:46;9.80;;;2.90;;
78891;SDS011;68368;51.728;5.248;2024-03-23T04:56:50;14.30;;;3.10;;
78891;SDS011;68368;51.728;5.248;2024-03-23T04:58:55;10.50;;;3.10;;
78891;SDS011;68368;51.728;5.248;2024-03-23T05:00:59;8.90;;;2.60;;
78891;SDS011;68368;51.728;5.248;2024-03-23T05:03:04;8.90;;;2.80;;
78891;SDS011;68368;51.728;5.248;2024-03-23T05:05:09;12.60;;;2.90;;
78891;SDS011;68368;51.728;5.248;2024-03-23T05:07:13;9.40;;;2.60;;
78891;SDS011;68368;51.728;5.248;2024-03-23T05:09:18;13.10;;;2.90;;
78891;SDS011;68368;51.728;5.248;2024-03-23T05:11:22;7.80;;;2.50;;
78891;SDS011;68368;51.728;5.248;2024-03-23T05:13:27;8.90;;;3.10;;
78891;SDS011;68368;51.728;5.248;2024-03-23T05:15:31;7.30;;;2.60;;
78891;SDS011;68368;51.728;5.248;2024-03-23T05:17:36;8.50;;;3.10;;
78891;SDS011;68368;51.728;5.248;2024-03-23T05:19:40;10.40;;;2.90;;
78891;SDS011;68368;51.728;5.248;2024-03-23T05:21:45;6.40;;;2.80;;
78891;SDS011;68368;51.728;5.248;2024-03-23T05:23:50;10.70;;;2.80;;
78891;SDS011;68368;51.728;5.248;2024-03-23T05:25:54;8.90;;;3.10;;
78891;SDS011;68368;51.728;5.248;2024-03-23T05:27:59;11.40;;;3.20;;
78891;SDS011;68368;51.728;5.248;2024-03-23T05:30:03;11.50;;;2.90;;
78891;SDS011;68368;51.728;5.248;2024-03-23T05:32:09;9.50;;;2.50;;
78891;SDS011;68368;51.728;5.248;2024-03-23T05:34:14;8.60;;;2.90;;
78891;SDS011;68368;51.728;5.248;2024-03-23T05:36:19;9.30;;;2.40;;
78891;SDS011;68368;51.728;5.248;2024-03-23T05:38:23;10.30;;;2.20;;
78891;SDS011;68368;51.728;5.248;2024-03-23T05:40:28;11.00;;;2.90;;
78891;SDS011;68368;51.728;5.248;2024-03-23T05:42:33;9.80;;;2.60;;
78891;SDS011;68368;51.728;5.248;2024-03-23T05:44:37;12.60;;;2.70;;
78891;SDS011;68368;51.728;5.248;2024-03-23T05:46:42;9.70;;;3.20;;
78891;SDS011;68368;51.728;5.248;2024-03-23T05:48:46;11.50;;;2.60;;
78891;SDS011;68368;51.728;5.248;2024-03-23T05:50:51;11.40;;;2.80;;
78891;SDS011;68368;51.728;5.248;2024-03-23T05:52:56;6.80;;;2.00;;
78891;SDS011;68368;51.728;5.248;2024-03-23T05:55:00;9.90;;;2.70;;
78891;SDS011;68368;51.728;5.248;2024-03-23T05:57:05;6.50;;;2.50;;
78891;SDS011;68368;51.728;5.248;2024-03-23T05:59:09;9.60;;;2.20;;
78891;SDS011;68368;51.728;5.248;2024-03-23T06:01:14;9.40;;;2.60;;
78891;SDS011;68368;51.728;5.248;2024-03-23T06:03:19;10.20;;;2.20;;
78891;SDS011;68368;51.728;5.248;2024-03-23T06:05:23;11.40;;;3.10;;
78891;SDS011;68368;51.728;5.248;2024-03-23T06:07:27;9.80;;;2.10;;
78891;SDS011;68368;51.728;5.248;2024-03-23T06:09:32;7.50;;;2.00;;
78891;SDS011;68368;51.728;5.248;2024-03-23T06:11:36;7.10;;;1.90;;
78891;SDS011;68368;51.728;5.248;2024-03-23T06:13:41;9.50;;;2.40;;
78891;SDS011;68368;51.728;5.248;2024-03-23T06:15:45;6.60;;;2.00;;
78891;SDS011;68368;51.728;5.248;2024-03-23T06:17:50;10.40;;;2.30;;
78891;SDS011;68368;51.728;5.248;2024-03-23T06:19:54;7.30;;;1.70;;
78891;SDS011;68368;51.728;5.248;2024-03-23T06:21:58;6.70;;;1.70;;
78891;SDS011;68368;51.728;5.248;2024-03-23T06:24:03;7.10;;;2.20;;
78891;SDS011;68368;51.728;5.248;2024-03-23T06:26:08;5.80;;;2.00;;
78891;SDS011;68368;51.728;5.248;2024-03-23T06:28:13;7.20;;;2.00;;
78891;SDS011;68368;51.728;5.248;2024-03-23T06:30:17;6.90;;;2.10;;
78891;SDS011;68368;51.728;5.248;2024-03-23T06:32:22;10.30;;;2.30;;
78891;SDS011;68368;51.728;5.248;2024-03-23T06:34:26;8.50;;;2.20;;
78891;SDS011;68368;51.728;5.248;2024-03-23T06:36:31;10.10;;;2.50;;
78891;SDS011;68368;51.728;5.248;2024-03-23T06:38:35;8.40;;;2.70;;
78891;SDS011;68368;51.728;5.248;2024-03-23T06:40:40;7.70;;;1.80;;
78891;SDS011;68368;51.728;5.248;2024-03-23T06:42:45;7.80;;;2.20;;
78891;SDS011;68368;51.728;5.248;2024-03-23T06:44:49;6.80;;;1.80;;
78891;SDS011;68368;51.728;5.248;2024-03-23T06:46:54;10.00;;;2.10;;
78891;SDS011;68368;51.728;5.248;2024-03-23T06:48:58;11.70;;;2.20;;
78891;SDS011;68368;51.728;5.248;2024-03-23T06:51:03;10.20;;;2.40;;
78891;SDS011;68368;51.728;5.248;2024-03-23T06:53:08;12.60;;;2.30;;
78891;SDS011;68368;51.728;5.248;2024-03-23T06:55:12;8.10;;;1.80;;
78891;SDS011;68368;51.728;5.248;2024-03-23T06:57:17;6.80;;;2.00;;
78891;SDS011;68368;51.728;5.248;2024-03-23T06:59:22;9.30;;;2.30;;
78891;SDS011;68368;51.728;5.248;2024-03-23T07:01:26;9.90;;;2.00;;
78891;SDS011;68368;51.728;5.248;2024-03-23T07:03:30;7.30;;;2.10;;
78891;SDS011;68368;51.728;5.248;2024-03-23T07:05:35;9.50;;;1.90;;
78891;SDS011;68368;51.728;5.248;2024-03-23T07:07:39;5.40;;;1.90;;
78891;SDS011;68368;51.728;5.248;2024-03-23T07:09:44;8.00;;;2.10;;
78891;SDS011;68368;51.728;5.248;2024-03-23T07:11:48;8.50;;;2.20;;
78891;SDS011;68368;51.728;5.248;2024-03-23T07:13:54;8.70;;;2.50;;
78891;SDS011;68368;51.728;5.248;2024-03-23T07:15:58;5.70;;;2.00;;
78891;SDS011;68368;51.728;5.248;2024-03-23T07:18:03;7.00;;;1.80;;
78891;SDS011;68368;51.728;5.248;2024-03-23T07:20:09;8.20;;;2.00;;
78891;SDS011;68368;51.728;5.248;2024-03-23T07:22:14;8.20;;;2.00;;
78891;SDS011;68368;51.728;5.248;2024-03-23T07:24:19;9.40;;;2.10;;
78891;SDS011;68368;51.728;5.248;2024-03-23T07:26:23;7.20;;;2.00;;
78891;SDS011;68368;51.728;5.248;2024-03-23T07:28:28;8.70;;;1.90;;
78891;SDS011;68368;51.728;5.248;2024-03-23T07:30:32;6.30;;;1.80;;
78891;SDS011;68368;51.728;5.248;2024-03-23T07:32:37;7.70;;;1.60;;
78891;SDS011;68368;51.728;5.248;2024-03-23T07:34:41;5.10;;;1.60;;
78891;SDS011;68368;51.728;5.248;2024-03-23T07:36:46;5.60;;;1.80;;
78891;SDS011;68368;51.728;5.248;2024-03-23T07:38:50;7.40;;;2.10;;
78891;SDS011;68368;51.728;5.248;2024-03-23T07:41:06;7.30;;;1.60;;
78891;SDS011;68368;51.728;5.248;2024-03-23T07:43:11;8.40;;;1.90;;
78891;SDS011;68368;51.728;5.248;2024-03-23T07:45:16;8.80;;;1.90;;
78891;SDS011;68368;51.728;5.248;2024-03-23T07:47:20;7.50;;;2.10;;
78891;SDS011;68368;51.728;5.248;2024-03-23T07:49:25;6.90;;;1.70;;
78891;SDS011;68368;51.728;5.248;2024-03-23T07:51:30;7.30;;;1.60;;
78891;SDS011;68368;51.728;5.248;2024-03-23T07:53:34;7.20;;;1.60;;
78891;SDS011;68368;51.728;5.248;2024-03-23T07:55:39;6.90;;;1.60;;
78891;SDS011;68368;51.728;5.248;2024-03-23T07:57:44;9.60;;;1.70;;
78891;SDS011;68368;51.728;5.248;2024-03-23T07:59:49;6.40;;;1.50;;
78891;SDS011;68368;51.728;5.248;2024-03-23T08:01:53;8.20;;;1.80;;
78891;SDS011;68368;51.728;5.248;2024-03-23T08:03:58;9.40;;;1.60;;
78891;SDS011;68368;51.728;5.248;2024-03-23T08:06:09;7.40;;;1.60;;
78891;SDS011;68368;51.728;5.248;2024-03-23T08:08:15;6.00;;;1.50;;
78891;SDS011;68368;51.728;5.248;2024-03-23T08:10:20;7.80;;;1.70;;
78891;SDS011;68368;51.728;5.248;2024-03-23T08:12:24;5.90;;;1.60;;
78891;SDS011;68368;51.728;5.248;2024-03-23T08:14:29;7.80;;;1.60;;
78891;SDS011;68368;51.728;5.248;2024-03-23T08:16:33;8.00;;;1.70;;
78891;SDS011;68368;51.728;5.248;2024-03-23T08:18:38;6.80;;;1.70;;
78891;SDS011;68368;51.728;5.248;2024-03-23T08:20:42;7.80;;;1.80;;
78891;SDS011;68368;51.728;5.248;2024-03-23T08:22:47;8.00;;;1.70;;
78891;SDS011;68368;51.728;5.248;2024-03-23T08:24:51;9.70;;;1.60;;
78891;SDS011;68368;51.728;5.248;2024-03-23T08:26:57;8.00;;;1.70;;
78891;SDS011;68368;51.728;5.248;2024-03-23T08:29:01;7.90;;;1.60;;
78891;SDS011;68368;51.728;5.248;2024-03-23T08:31:07;9.00;;;1.50;;
78891;SDS011;68368;51.728;5.248;2024-03-23T08:33:13;6.60;;;1.70;;
78891;SDS011;68368;51.728;5.248;2024-03-23T08:35:18;8.20;;;1.60;;
78891;SDS011;68368;51.728;5.248;2024-03-23T08:37:22;7.20;;;1.80;;
78891;SDS011;68368;51.728;5.248;2024-03-23T08:39:30;8.40;;;1.80;;
78891;SDS011;68368;51.728;5.248;2024-03-23T08:41:36;4.90;;;1.00;;
78891;SDS011;68368;51.728;5.248;2024-03-23T08:43:42;7.10;;;1.60;;
78891;SDS011;68368;51.728;5.248;2024-03-23T08:45:46;6.20;;;1.10;;
78891;SDS011;68368;51.728;5.248;2024-03-23T08:47:50;3.30;;;0.80;;
78891;SDS011;68368;51.728;5.248;2024-03-23T08:49:56;3.80;;;1.00;;
78891;SDS011;68368;51.728;5.248;2024-03-23T08:52:01;5.10;;;1.30;;
78891;SDS011;68368;51.728;5.248;2024-03-23T08:54:06;5.40;;;1.10;;
78891;SDS011;68368;51.728;5.248;2024-03-23T08:56:13;3.30;;;1.00;;
78891;SDS011;68368;51.728;5.248;2024-03-23T08:58:18;4.10;;;1.10;;
78891;SDS011;68368;51.728;5.248;2024-03-23T09:00:33;9.10;;;1.60;;
78891;SDS011;68368;51.728;5.248;2024-03-23T09:02:38;8.00;;;1.60;;
78891;SDS011;68368;51.728;5.248;2024-03-23T09:04:51;7.80;;;1.60;;
78891;SDS011;68368;51.728;5.248;2024-03-23T09:06:56;10.20;;;2.80;;
78891;SDS011;68368;51.728;5.248;2024-03-23T09:09:03;5.70;;;1.60;;
78891;SDS011;68368;51.728;5.248;2024-03-23T09:11:09;8.60;;;1.40;;
78891;SDS011;68368;51.728;5.248;2024-03-23T09:13:15;6.20;;;1.10;;
78891;SDS011;68368;51.728;5.248;2024-03-23T09:15:20;13.80;;;2.00;;
78891;SDS011;68368;51.728;5.248;2024-03-23T09:17:24;5.20;;;1.20;;
78891;SDS011;68368;51.728;5.248;2024-03-23T09:19:30;8.20;;;1.70;;
78891;SDS011;68368;51.728;5.248;2024-03-23T09:21:34;4.80;;;1.10;;
78891;SDS011;68368;51.728;5.248;2024-03-23T09:23:39;5.40;;;1.30;;
78891;SDS011;68368;51.728;5.248;2024-03-23T09:25:45;6.70;;;1.30;;
78891;SDS011;68368;51.728;5.248;2024-03-23T09:27:53;5.80;;;1.20;;
78891;SDS011;68368;51.728;5.248;2024-03-23T09:29:59;5.50;;;1.30;;
78891;SDS011;68368;51.728;5.248;2024-03-23T09:32:05;7.70;;;1.60;;
78891;SDS011;68368;51.728;5.248;2024-03-23T09:34:10;7.00;;;1.60;;
78891;SDS011;68368;51.728;5.248;2024-03-23T09:36:14;6.00;;;1.70;;
78891;SDS011;68368;51.728;5.248;2024-03-23T09:38:19;7.40;;;2.30;;
78891;SDS011;68368;51.728;5.248;2024-03-23T09:40:23;6.60;;;1.40;;
78891;SDS011;68368;51.728;5.248;2024-03-23T09:42:28;5.80;;;1.30;;
78891;SDS011;68368;51.728;5.248;2024-03-23T09:44:33;5.00;;;1.50;;
78891;SDS011;68368;51.728;5.248;2024-03-23T09:46:38;3.80;;;0.90;;
78891;SDS011;68368;51.728;5.248;2024-03-23T09:48:43;6.50;;;1.20;;
78891;SDS011;68368;51.728;5.248;2024-03-23T09:50:49;4.30;;;1.10;;
78891;SDS011;68368;51.728;5.248;2024-03-23T09:52:54;6.40;;;1.10;;
78891;SDS011;68368;51.728;5.248;2024-03-23T09:54:58;6.60;;;1.10;;
78891;SDS011;68368;51.728;5.248;2024-03-23T09:57:04;6.00;;;1.40;;
78891;SDS011;68368;51.728;5.248;2024-03-23T09:59:09;4.70;;;1.10;;
78891;SDS011;68368;51.728;5.248;2024-03-23T10:01:13;7.90;;;1.60;;
78891;SDS011;68368;51.728;5.248;2024-03-23T10:03:19;5.50;;;1.30;;
78891;SDS011;68368;51.728;5.248;2024-03-23T10:05:24;4.50;;;1.30;;
78891;SDS011;68368;51.728;5.248;2024-03-23T10:07:32;5.50;;;1.90;;
78891;SDS011;68368;51.728;5.248;2024-03-23T10:09:37;6.80;;;1.50;;
78891;SDS011;68368;51.728;5.248;2024-03-23T10:11:42;7.40;;;1.50;;
78891;SDS011;68368;51.728;5.248;2024-03-23T10:13:47;7.70;;;1.90;;
78891;SDS011;68368;51.728;5.248;2024-03-23T10:15:56;5.70;;;1.50;;
78891;SDS011;68368;51.728;5.248;2024-03-23T10:18:02;4.90;;;1.30;;
78891;SDS011;68368;51.728;5.248;2024-03-23T10:20:22;7.60;;;1.30;;
78891;SDS011;68368;51.728;5.248;2024-03-23T10:22:27;6.20;;;1.60;;
78891;SDS011;68368;51.728;5.248;2024-03-23T10:24:32;6.40;;;1.30;;
78891;SDS011;68368;51.728;5.248;2024-03-23T10:26:37;6.00;;;1.20;;
78891;SDS011;68368;51.728;5.248;2024-03-23T10:28:53;6.40;;;1.40;;
78891;SDS011;68368;51.728;5.248;2024-03-23T10:31:00;8.50;;;1.50;;
78891;SDS011;68368;51.728;5.248;2024-03-23T10:33:15;3.90;;;1.10;;
78891;SDS011;68368;51.728;5.248;2024-03-23T10:35:20;3.90;;;1.30;;
78891;SDS011;68368;51.728;5.248;2024-03-23T10:37:25;6.40;;;1.30;;
78891;SDS011;68368;51.728;5.248;2024-03-23T10:39:31;5.60;;;1.50;;
78891;SDS011;68368;51.728;5.248;2024-03-23T10:41:37;5.20;;;1.20;;
78891;SDS011;68368;51.728;5.248;2024-03-23T10:43:42;6.90;;;1.50;;
78891;SDS011;68368;51.728;5.248;2024-03-23T10:45:47;4.40;;;0.90;;
78891;SDS011;68368;51.728;5.248;2024-03-23T10:47:56;9.00;;;1.80;;
78891;SDS011;68368;51.728;5.248;2024-03-23T10:50:01;5.00;;;1.10;;
78891;SDS011;68368;51.728;5.248;2024-03-23T10:52:07;4.90;;;1.10;;
78891;SDS011;68368;51.728;5.248;2024-03-23T10:54:12;5.90;;;1.30;;
78891;SDS011;68368;51.728;5.248;2024-03-23T10:56:18;7.30;;;1.70;;
78891;SDS011;68368;51.728;5.248;2024-03-23T10:58:28;4.80;;;1.30;;
78891;SDS011;68368;51.728;5.248;2024-03-23T11:00:35;5.50;;;1.20;;
78891;SDS011;68368;51.728;5.248;2024-03-23T11:02:41;5.70;;;1.20;;
78891;SDS011;68368;51.728;5.248;2024-03-23T11:04:46;9.20;;;1.60;;
78891;SDS011;68368;51.728;5.248;2024-03-23T11:06:51;5.50;;;1.20;;
78891;SDS011;68368;51.728;5.248;2024-03-23T11:08:59;4.30;;;1.00;;
78891;SDS011;68368;51.728;5.248;2024-03-23T11:11:18;5.70;;;1.40;;
78891;SDS011;68368;51.728;5.248;2024-03-23T11:13:26;4.90;;;1.20;;
78891;SDS011;68368;51.728;5.248;2024-03-23T11:15:31;7.30;;;1.50;;
78891;SDS011;68368;51.728;5.248;2024-03-23T11:17:36;7.90;;;1.60;;
78891;SDS011;68368;51.728;5.248;2024-03-23T11:19:41;6.00;;;1.40;;
78891;SDS011;68368;51.728;5.248;2024-03-23T11:21:54;4.40;;;0.80;;
78891;SDS011;68368;51.728;5.248;2024-03-23T11:24:16;4.20;;;0.90;;
78891;SDS011;68368;51.728;5.248;2024-03-23T11:26:24;4.60;;;0.70;;
78891;SDS011;68368;51.728;5.248;2024-03-23T11:28:34;2.30;;;0.70;;
78891;SDS011;68368;51.728;5.248;2024-03-23T11:30:39;3.30;;;0.70;;
78891;SDS011;68368;51.728;5.248;2024-03-23T11:32:49;4.60;;;1.10;;
78891;SDS011;68368;51.728;5.248;2024-03-23T11:34:55;3.70;;;1.00;;
78891;SDS011;68368;51.728;5.248;2024-03-23T11:37:05;4.30;;;1.10;;
78891;SDS011;68368;51.728;5.248;2024-03-23T11:39:17;6.60;;;1.00;;
78891;SDS011;68368;51.728;5.248;2024-03-23T11:41:22;5.30;;;1.20;;
78891;SDS011;68368;51.728;5.248;2024-03-23T11:43:28;7.70;;;1.10;;
78891;SDS011;68368;51.728;5.248;2024-03-23T11:45:36;6.30;;;1.10;;
78891;SDS011;68368;51.728;5.248;2024-03-23T11:47:42;6.20;;;1.30;;
78891;SDS011;68368;51.728;5.248;2024-03-23T11:49:48;6.40;;;2.00;;
78891;SDS011;68368;51.728;5.248;2024-03-23T11:51:54;4.00;;;1.30;;
78891;SDS011;68368;51.728;5.248;2024-03-23T11:54:09;6.20;;;1.30;;
78891;SDS011;68368;51.728;5.248;2024-03-23T11:56:17;8.40;;;1.60;;
78891;SDS011;68368;51.728;5.248;2024-03-23T11:58:22;8.90;;;1.60;;
78891;SDS011;68368;51.728;5.248;2024-03-23T12:00:28;7.80;;;1.70;;
78891;SDS011;68368;51.728;5.248;2024-03-23T12:02:33;8.60;;;1.40;;
78891;SDS011;68368;51.728;5.248;2024-03-23T12:04:41;4.80;;;1.30;;
78891;SDS011;68368;51.728;5.248;2024-03-23T12:06:46;8.20;;;1.50;;
78891;SDS011;68368;51.728;5.248;2024-03-23T12:08:50;7.80;;;1.70;;
78891;SDS011;68368;51.728;5.248;2024-03-23T12:11:08;6.50;;;1.20;;
78891;SDS011;68368;51.728;5.248;2024-03-23T12:13:15;6.20;;;1.40;;
78891;SDS011;68368;51.728;5.248;2024-03-23T12:15:22;5.00;;;1.10;;
78891;SDS011;68368;51.728;5.248;2024-03-23T12:17:27;4.80;;;1.00;;
78891;SDS011;68368;51.728;5.248;2024-03-23T12:19:32;4.90;;;1.30;;
78891;SDS011;68368;51.728;5.248;2024-03-23T12:21:37;6.30;;;1.20;;
78891;SDS011;68368;51.728;5.248;2024-03-23T12:23:42;8.90;;;1.70;;
78891;SDS011;68368;51.728;5.248;2024-03-23T12:25:48;7.60;;;1.20;;
78891;SDS011;68368;51.728;5.248;2024-03-23T12:27:53;7.30;;;1.50;;
78891;SDS011;68368;51.728;5.248;2024-03-23T12:30:00;6.20;;;1.00;;
78891;SDS011;68368;51.728;5.248;2024-03-23T12:32:09;6.40;;;1.40;;
78891;SDS011;68368;51.728;5.248;2024-03-23T12:34:14;8.30;;;1.50;;
78891;SDS011;68368;51.728;5.248;2024-03-23T12:36:18;6.10;;;1.00;;
78891;SDS011;68368;51.728;5.248;2024-03-23T12:38:23;4.20;;;1.10;;
78891;SDS011;68368;51.728;5.248;2024-03-23T12:40:28;6.90;;;1.60;;
78891;SDS011;68368;51.728;5.248;2024-03-23T12:42:32;3.20;;;0.90;;
78891;SDS011;68368;51.728;5.248;2024-03-23T12:44:37;7.00;;;0.90;;
78891;SDS011;68368;51.728;5.248;2024-03-23T12:46:42;4.30;;;0.90;;
78891;SDS011;68368;51.728;5.248;2024-03-23T12:48:48;4.40;;;0.90;;
78891;SDS011;68368;51.728;5.248;2024-03-23T12:50:57;3.20;;;0.80;;
78891;SDS011;68368;51.728;5.248;2024-03-23T12:53:01;7.20;;;1.40;;
78891;SDS011;68368;51.728;5.248;2024-03-23T12:55:07;5.30;;;0.80;;
78891;SDS011;68368;51.728;5.248;2024-03-23T12:57:12;5.60;;;0.90;;
78891;SDS011;68368;51.728;5.248;2024-03-23T12:59:17;4.30;;;1.00;;
78891;SDS011;68368;51.728;5.248;2024-03-23T13:01:23;4.40;;;0.60;;
78891;SDS011;68368;51.728;5.248;2024-03-23T13:03:28;5.20;;;1.40;;
78891;SDS011;68368;51.728;5.248;2024-03-23T13:05:33;6.40;;;1.00;;
78891;SDS011;68368;51.728;5.248;2024-03-23T13:07:38;5.00;;;1.10;;
78891;SDS011;68368;51.728;5.248;2024-03-23T13:09:44;6.60;;;1.20;;
78891;SDS011;68368;51.728;5.248;2024-03-23T13:11:49;6.30;;;0.90;;
78891;SDS011;68368;51.728;5.248;2024-03-23T13:13:55;9.70;;;1.80;;
78891;SDS011;68368;51.728;5.248;2024-03-23T13:16:00;4.30;;;0.80;;
78891;SDS011;68368;51.728;5.248;2024-03-23T13:18:05;7.20;;;1.20;;
78891;SDS011;68368;51.728;5.248;2024-03-23T13:20:13;4.80;;;1.10;;
78891;SDS011;68368;51.728;5.248;2024-03-23T13:24:44;5.30;;;1.10;;
78891;SDS011;68368;51.728;5.248;2024-03-23T13:26:53;3.30;;;0.70;;
78891;SDS011;68368;51.728;5.248;2024-03-23T13:28:59;5.20;;;1.10;;